sensor_id;sensor_type;location;lat;lon;timestamp;P1;durP1;ratioP1;P2;durP2;ratioP2
44430;SDS011;30135;47.866;-4.222;2022-12-18T00:01:32;32.50;;;12.77;;
44430;SDS011;30135;47.866;-4.222;2022-12-18T00:04:00;28.95;;;11.65;;
44430;SDS011;30135;47.866;-4.222;2022-12-18T00:06:29;26.50;;;11.10;;
44430;SDS011;30135;47.866;-4.222;2022-12-18T00:09:02;23.02;;;10.82;;
44430;SDS011;30135;47.866;-4.222;2022-12-18T00:11:29;26.55;;;12.60;;
44430;SDS011;30135;47.866;-4.222;2022-12-18T00:14:02;28.48;;;11.63;;
44430;SDS011;30135;47.866;-4.222;2022-12-18T00:16:29;28.25;;;12.73;;
44430;SDS011;30135;47.866;-4.222;2022-12-18T00:18:58;26.48;;;12.30;;
44430;SDS011;30135;47.866;-4.222;2022-12-18T00:21:25;32.33;;;13.43;;
44430;SDS011;30135;47.866;-4.222;2022-12-18T00:23:53;33.72;;;12.73;;
44430;SDS011;30135;47.866;-4.222;2022-12-18T00:26:20;28.10;;;11.77;;
44430;SDS011;30135;47.866;-4.222;2022-12-18T00:28:59;30.75;;;12.50;;
44430;SDS011;30135;47.866;-4.222;2022-12-18T00:31:35;37.63;;;12.05;;
44430;SDS011;30135;47.866;-4.222;2022-12-18T00:34:02;30.83;;;12.65;;
44430;SDS011;30135;47.866;-4.222;2022-12-18T00:36:30;27.60;;;11.70;;
44430;SDS011;30135;47.866;-4.222;2022-12-18T00:41:27;26.10;;;11.07;;
44430;SDS011;30135;47.866;-4.222;2022-12-18T00:44:13;26.38;;;12.32;;
44430;SDS011;30135;47.866;-4.222;2022-12-18T00:46:42;28.20;;;11.48;;
44430;SDS011;30135;47.866;-4.222;2022-12-18T00:49:09;30.13;;;10.93;;
44430;SDS011;30135;47.866;-4.222;2022-12-18T00:51:35;22.13;;;10.57;;
44430;SDS011;30135;47.866;-4.222;2022-12-18T00:54:01;33.35;;;12.60;;
44430;SDS011;30135;47.866;-4.222;2022-12-18T00:56:27;31.30;;;12.95;;
44430;SDS011;30135;47.866;-4.222;2022-12-18T00:58:53;33.45;;;13.25;;
44430;SDS011;30135;47.866;-4.222;2022-12-18T01:01:19;29.23;;;11.65;;
44430;SDS011;30135;47.866;-4.222;2022-12-18T01:03:45;26.55;;;12.52;;
44430;SDS011;30135;47.866;-4.222;2022-12-18T01:06:12;23.83;;;11.13;;
44430;SDS011;30135;47.866;-4.222;2022-12-18T01:08:40;32.17;;;10.70;;
44430;SDS011;30135;47.866;-4.222;2022-12-18T01:11:08;34.95;;;13.82;;
44430;SDS011;30135;47.866;-4.222;2022-12-18T01:13:45;30.23;;;13.10;;
44430;SDS011;30135;47.866;-4.222;2022-12-18T01:16:15;39.78;;;14.45;;
44430;SDS011;30135;47.866;-4.222;2022-12-18T01:18:42;27.98;;;11.32;;
44430;SDS011;30135;47.866;-4.222;2022-12-18T01:21:09;27.30;;;13.32;;
44430;SDS011;30135;47.866;-4.222;2022-12-18T01:23:39;32.20;;;12.35;;
44430;SDS011;30135;47.866;-4.222;2022-12-18T01:26:06;21.15;;;11.43;;
44430;SDS011;30135;47.866;-4.222;2022-12-18T01:28:35;22.85;;;9.25;;
44430;SDS011;30135;47.866;-4.222;2022-12-18T01:31:15;34.83;;;12.93;;
44430;SDS011;30135;47.866;-4.222;2022-12-18T01:33:43;30.52;;;13.02;;
44430;SDS011;30135;47.866;-4.222;2022-12-18T01:36:17;26.35;;;11.43;;
44430;SDS011;30135;47.866;-4.222;2022-12-18T01:38:47;28.85;;;12.60;;
44430;SDS011;30135;47.866;-4.222;2022-12-18T01:41:14;26.13;;;12.85;;
44430;SDS011;30135;47.866;-4.222;2022-12-18T01:43:47;33.28;;;12.77;;
44430;SDS011;30135;47.866;-4.222;2022-12-18T01:46:24;32.42;;;13.10;;
44430;SDS011;30135;47.866;-4.222;2022-12-18T01:48:56;31.02;;;14.52;;
44430;SDS011;30135;47.866;-4.222;2022-12-18T01:51:29;30.67;;;14.23;;
44430;SDS011;30135;47.866;-4.222;2022-12-18T01:53:55;28.95;;;12.68;;
44430;SDS011;30135;47.866;-4.222;2022-12-18T01:56:22;23.13;;;11.43;;
44430;SDS011;30135;47.866;-4.222;2022-12-18T02:01:25;27.70;;;12.65;;
44430;SDS011;30135;47.866;-4.222;2022-12-18T02:03:52;28.65;;;11.95;;
44430;SDS011;30135;47.866;-4.222;2022-12-18T02:17:19;27.08;;;12.57;;
44430;SDS011;30135;47.866;-4.222;2022-12-18T02:31:35;25.27;;;12.05;;
44430;SDS011;30135;47.866;-4.222;2022-12-18T02:34:08;34.72;;;11.65;;
44430;SDS011;30135;47.866;-4.222;2022-12-18T02:36:36;32.53;;;12.02;;
44430;SDS011;30135;47.866;-4.222;2022-12-18T02:39:06;28.58;;;11.85;;
44430;SDS011;30135;47.866;-4.222;2022-12-18T02:41:35;24.48;;;10.73;;
44430;SDS011;30135;47.866;-4.222;2022-12-18T02:44:07;24.15;;;11.35;;
44430;SDS011;30135;47.866;-4.222;2022-12-18T02:46:45;27.35;;;11.50;;
44430;SDS011;30135;47.866;-4.222;2022-12-18T02:57:51;28.13;;;11.75;;
44430;SDS011;30135;47.866;-4.222;2022-12-18T03:00:51;28.92;;;12.55;;
44430;SDS011;30135;47.866;-4.222;2022-12-18T03:03:36;27.92;;;11.75;;
44430;SDS011;30135;47.866;-4.222;2022-12-18T03:06:25;40.97;;;13.52;;
44430;SDS011;30135;47.866;-4.222;2022-12-18T03:09:10;40.35;;;11.50;;
44430;SDS011;30135;47.866;-4.222;2022-12-18T03:11:47;34.95;;;13.10;;
44430;SDS011;30135;47.866;-4.222;2022-12-18T03:14:40;28.77;;;11.93;;
44430;SDS011;30135;47.866;-4.222;2022-12-18T03:17:10;32.78;;;12.30;;
44430;SDS011;30135;47.866;-4.222;2022-12-18T03:19:39;28.73;;;11.85;;
44430;SDS011;30135;47.866;-4.222;2022-12-18T03:22:08;27.98;;;12.68;;
44430;SDS011;30135;47.866;-4.222;2022-12-18T03:24:35;26.77;;;12.27;;
44430;SDS011;30135;47.866;-4.222;2022-12-18T03:27:06;24.52;;;11.63;;
44430;SDS011;30135;47.866;-4.222;2022-12-18T03:29:43;25.95;;;12.13;;
44430;SDS011;30135;47.866;-4.222;2022-12-18T03:32:53;30.33;;;13.18;;
44430;SDS011;30135;47.866;-4.222;2022-12-18T03:36:05;31.77;;;12.23;;
44430;SDS011;30135;47.866;-4.222;2022-12-18T03:38:32;31.35;;;13.70;;
44430;SDS011;30135;47.866;-4.222;2022-12-18T03:46:33;23.98;;;11.05;;
44430;SDS011;30135;47.866;-4.222;2022-12-18T03:55:01;34.13;;;12.27;;
44430;SDS011;30135;47.866;-4.222;2022-12-18T03:57:31;32.28;;;14.32;;
44430;SDS011;30135;47.866;-4.222;2022-12-18T04:00:08;40.42;;;12.90;;
44430;SDS011;30135;47.866;-4.222;2022-12-18T04:02:37;31.30;;;11.60;;
44430;SDS011;30135;47.866;-4.222;2022-12-18T04:05:10;25.25;;;11.90;;
44430;SDS011;30135;47.866;-4.222;2022-12-18T04:07:37;33.88;;;14.10;;
44430;SDS011;30135;47.866;-4.222;2022-12-18T04:10:05;41.05;;;13.55;;
44430;SDS011;30135;47.866;-4.222;2022-12-18T04:12:32;31.20;;;12.00;;
44430;SDS011;30135;47.866;-4.222;2022-12-18T04:14:58;27.17;;;12.98;;
44430;SDS011;30135;47.866;-4.222;2022-12-18T04:17:24;30.05;;;11.40;;
44430;SDS011;30135;47.866;-4.222;2022-12-18T04:19:50;35.13;;;12.45;;
44430;SDS011;30135;47.866;-4.222;2022-12-18T04:22:16;37.85;;;12.32;;
44430;SDS011;30135;47.866;-4.222;2022-12-18T04:24:42;33.42;;;13.02;;
44430;SDS011;30135;47.866;-4.222;2022-12-18T04:27:08;26.77;;;11.10;;
44430;SDS011;30135;47.866;-4.222;2022-12-18T04:29:34;32.17;;;12.63;;
44430;SDS011;30135;47.866;-4.222;2022-12-18T04:32:00;30.38;;;11.13;;
44430;SDS011;30135;47.866;-4.222;2022-12-18T04:34:26;32.70;;;13.65;;
44430;SDS011;30135;47.866;-4.222;2022-12-18T04:36:52;30.88;;;13.82;;
44430;SDS011;30135;47.866;-4.222;2022-12-18T04:39:18;26.25;;;11.05;;
44430;SDS011;30135;47.866;-4.222;2022-12-18T04:41:44;38.63;;;12.98;;
44430;SDS011;30135;47.866;-4.222;2022-12-18T04:44:10;27.45;;;11.88;;
44430;SDS011;30135;47.866;-4.222;2022-12-18T04:46:36;28.63;;;12.30;;
44430;SDS011;30135;47.866;-4.222;2022-12-18T04:49:02;29.85;;;11.73;;
44430;SDS011;30135;47.866;-4.222;2022-12-18T04:51:28;32.90;;;12.30;;
44430;SDS011;30135;47.866;-4.222;2022-12-18T04:53:54;27.73;;;11.88;;
44430;SDS011;30135;47.866;-4.222;2022-12-18T04:56:20;46.35;;;15.07;;
44430;SDS011;30135;47.866;-4.222;2022-12-18T04:58:47;27.52;;;13.77;;
44430;SDS011;30135;47.866;-4.222;2022-12-18T05:01:14;37.00;;;11.85;;
44430;SDS011;30135;47.866;-4.222;2022-12-18T05:03:42;34.05;;;13.27;;
44430;SDS011;30135;47.866;-4.222;2022-12-18T05:06:08;29.35;;;12.57;;
44430;SDS011;30135;47.866;-4.222;2022-12-18T05:08:35;35.95;;;14.25;;
44430;SDS011;30135;47.866;-4.222;2022-12-18T05:11:05;35.33;;;13.93;;
44430;SDS011;30135;47.866;-4.222;2022-12-18T05:13:34;34.47;;;12.80;;
44430;SDS011;30135;47.866;-4.222;2022-12-18T05:16:00;37.35;;;13.95;;
44430;SDS011;30135;47.866;-4.222;2022-12-18T05:18:28;34.47;;;14.82;;
44430;SDS011;30135;47.866;-4.222;2022-12-18T05:20:54;33.72;;;13.93;;
44430;SDS011;30135;47.866;-4.222;2022-12-18T05:23:21;29.88;;;12.73;;
44430;SDS011;30135;47.866;-4.222;2022-12-18T05:25:58;36.58;;;13.93;;
44430;SDS011;30135;47.866;-4.222;2022-12-18T05:28:28;35.13;;;14.13;;
44430;SDS011;30135;47.866;-4.222;2022-12-18T05:30:57;39.13;;;14.63;;
44430;SDS011;30135;47.866;-4.222;2022-12-18T05:33:26;36.38;;;14.23;;
44430;SDS011;30135;47.866;-4.222;2022-12-18T05:35:57;37.53;;;15.20;;
44430;SDS011;30135;47.866;-4.222;2022-12-18T05:38:25;35.03;;;12.53;;
44430;SDS011;30135;47.866;-4.222;2022-12-18T05:40:52;32.28;;;11.93;;
44430;SDS011;30135;47.866;-4.222;2022-12-18T05:43:19;27.83;;;10.88;;
44430;SDS011;30135;47.866;-4.222;2022-12-18T05:45:47;24.55;;;6.97;;
44430;SDS011;30135;47.866;-4.222;2022-12-18T05:48:14;21.65;;;6.22;;
44430;SDS011;30135;47.866;-4.222;2022-12-18T05:50:41;20.15;;;5.03;;
44430;SDS011;30135;47.866;-4.222;2022-12-18T05:53:10;11.98;;;4.20;;
44430;SDS011;30135;47.866;-4.222;2022-12-18T05:55:38;16.73;;;3.28;;
44430;SDS011;30135;47.866;-4.222;2022-12-18T05:58:06;13.25;;;3.10;;
44430;SDS011;30135;47.866;-4.222;2022-12-18T06:00:35;19.85;;;3.95;;
44430;SDS011;30135;47.866;-4.222;2022-12-18T06:03:09;16.98;;;2.92;;
44430;SDS011;30135;47.866;-4.222;2022-12-18T06:05:37;14.38;;;2.88;;
44430;SDS011;30135;47.866;-4.222;2022-12-18T06:08:06;18.30;;;3.67;;
44430;SDS011;30135;47.866;-4.222;2022-12-18T06:10:32;13.90;;;2.90;;
44430;SDS011;30135;47.866;-4.222;2022-12-18T06:12:58;18.38;;;3.38;;
44430;SDS011;30135;47.866;-4.222;2022-12-18T06:15:25;11.68;;;3.45;;
44430;SDS011;30135;47.866;-4.222;2022-12-18T06:17:51;14.45;;;3.60;;
44430;SDS011;30135;47.866;-4.222;2022-12-18T06:20:17;17.27;;;2.80;;
44430;SDS011;30135;47.866;-4.222;2022-12-18T06:22:44;23.95;;;3.35;;
44430;SDS011;30135;47.866;-4.222;2022-12-18T06:25:10;23.00;;;2.92;;
44430;SDS011;30135;47.866;-4.222;2022-12-18T06:27:36;14.10;;;3.63;;
44430;SDS011;30135;47.866;-4.222;2022-12-18T06:30:02;31.50;;;3.95;;
44430;SDS011;30135;47.866;-4.222;2022-12-18T06:32:29;19.52;;;3.47;;
44430;SDS011;30135;47.866;-4.222;2022-12-18T06:34:55;22.75;;;3.70;;
44430;SDS011;30135;47.866;-4.222;2022-12-18T06:37:21;21.05;;;2.80;;
44430;SDS011;30135;47.866;-4.222;2022-12-18T06:39:51;28.23;;;3.40;;
44430;SDS011;30135;47.866;-4.222;2022-12-18T06:42:18;16.75;;;2.85;;
44430;SDS011;30135;47.866;-4.222;2022-12-18T06:47:14;15.63;;;2.78;;
44430;SDS011;30135;47.866;-4.222;2022-12-18T06:49:40;24.23;;;3.53;;
44430;SDS011;30135;47.866;-4.222;2022-12-18T06:52:06;25.60;;;5.25;;
44430;SDS011;30135;47.866;-4.222;2022-12-18T06:54:32;17.23;;;4.55;;
44430;SDS011;30135;47.866;-4.222;2022-12-18T06:56:58;22.42;;;3.83;;
44430;SDS011;30135;47.866;-4.222;2022-12-18T06:59:24;24.98;;;5.68;;
44430;SDS011;30135;47.866;-4.222;2022-12-18T07:01:50;21.15;;;3.05;;
44430;SDS011;30135;47.866;-4.222;2022-12-18T07:04:18;27.38;;;4.60;;
44430;SDS011;30135;47.866;-4.222;2022-12-18T07:06:44;37.15;;;5.05;;
44430;SDS011;30135;47.866;-4.222;2022-12-18T07:09:10;26.48;;;4.07;;
44430;SDS011;30135;47.866;-4.222;2022-12-18T07:11:36;26.38;;;3.92;;
44430;SDS011;30135;47.866;-4.222;2022-12-18T07:14:02;21.60;;;3.05;;
44430;SDS011;30135;47.866;-4.222;2022-12-18T07:16:27;25.63;;;2.95;;
44430;SDS011;30135;47.866;-4.222;2022-12-18T07:18:54;25.63;;;3.13;;
44430;SDS011;30135;47.866;-4.222;2022-12-18T07:21:21;26.30;;;3.58;;
44430;SDS011;30135;47.866;-4.222;2022-12-18T07:23:49;25.13;;;3.63;;
44430;SDS011;30135;47.866;-4.222;2022-12-18T07:26:23;19.73;;;3.17;;
44430;SDS011;30135;47.866;-4.222;2022-12-18T07:29:07;18.90;;;3.13;;
44430;SDS011;30135;47.866;-4.222;2022-12-18T07:31:33;30.60;;;3.22;;
44430;SDS011;30135;47.866;-4.222;2022-12-18T07:33:59;35.00;;;3.38;;
44430;SDS011;30135;47.866;-4.222;2022-12-18T07:36:25;29.95;;;5.13;;
44430;SDS011;30135;47.866;-4.222;2022-12-18T07:38:51;19.23;;;3.10;;
44430;SDS011;30135;47.866;-4.222;2022-12-18T07:41:18;39.40;;;4.97;;
44430;SDS011;30135;47.866;-4.222;2022-12-18T07:43:44;10.43;;;2.90;;
44430;SDS011;30135;47.866;-4.222;2022-12-18T07:46:11;11.02;;;2.33;;
44430;SDS011;30135;47.866;-4.222;2022-12-18T07:48:39;26.00;;;3.67;;
44430;SDS011;30135;47.866;-4.222;2022-12-18T07:51:06;19.92;;;3.17;;
44430;SDS011;30135;47.866;-4.222;2022-12-18T07:53:33;21.45;;;3.30;;
44430;SDS011;30135;47.866;-4.222;2022-12-18T07:56:02;17.20;;;3.25;;
44430;SDS011;30135;47.866;-4.222;2022-12-18T07:58:32;27.13;;;3.22;;
44430;SDS011;30135;47.866;-4.222;2022-12-18T08:01:31;22.65;;;3.83;;
44430;SDS011;30135;47.866;-4.222;2022-12-18T08:03:50;39.50;;;5.03;;
44430;SDS011;30135;47.866;-4.222;2022-12-18T08:06:16;34.47;;;4.03;;
44430;SDS011;30135;47.866;-4.222;2022-12-18T08:08:42;16.77;;;4.18;;
44430;SDS011;30135;47.866;-4.222;2022-12-18T08:11:08;29.13;;;3.78;;
44430;SDS011;30135;47.866;-4.222;2022-12-18T08:13:34;17.02;;;3.42;;
44430;SDS011;30135;47.866;-4.222;2022-12-18T08:16:04;25.73;;;4.18;;
44430;SDS011;30135;47.866;-4.222;2022-12-18T08:18:32;18.77;;;4.80;;
44430;SDS011;30135;47.866;-4.222;2022-12-18T08:21:10;15.75;;;3.50;;
44430;SDS011;30135;47.866;-4.222;2022-12-18T08:23:37;25.38;;;3.22;;
44430;SDS011;30135;47.866;-4.222;2022-12-18T08:26:05;17.48;;;3.17;;
44430;SDS011;30135;47.866;-4.222;2022-12-18T08:28:34;26.42;;;3.30;;
44430;SDS011;30135;47.866;-4.222;2022-12-18T08:31:00;17.70;;;3.38;;
44430;SDS011;30135;47.866;-4.222;2022-12-18T08:33:26;20.17;;;4.28;;
44430;SDS011;30135;47.866;-4.222;2022-12-18T08:35:52;30.88;;;4.57;;
44430;SDS011;30135;47.866;-4.222;2022-12-18T08:38:18;24.75;;;3.28;;
44430;SDS011;30135;47.866;-4.222;2022-12-18T08:40:44;18.98;;;3.63;;
44430;SDS011;30135;47.866;-4.222;2022-12-18T08:43:10;25.00;;;3.92;;
44430;SDS011;30135;47.866;-4.222;2022-12-18T08:45:55;25.77;;;4.47;;
44430;SDS011;30135;47.866;-4.222;2022-12-18T08:48:21;29.30;;;3.33;;
44430;SDS011;30135;47.866;-4.222;2022-12-18T08:50:54;29.52;;;4.45;;
44430;SDS011;30135;47.866;-4.222;2022-12-18T08:53:24;21.95;;;4.05;;
44430;SDS011;30135;47.866;-4.222;2022-12-18T08:55:55;24.30;;;3.67;;
44430;SDS011;30135;47.866;-4.222;2022-12-18T08:58:22;24.27;;;3.58;;
44430;SDS011;30135;47.866;-4.222;2022-12-18T09:00:48;28.00;;;2.72;;
44430;SDS011;30135;47.866;-4.222;2022-12-18T09:03:15;23.05;;;3.05;;
44430;SDS011;30135;47.866;-4.222;2022-12-18T09:05:43;19.02;;;2.17;;
44430;SDS011;30135;47.866;-4.222;2022-12-18T09:08:11;17.05;;;2.70;;
44430;SDS011;30135;47.866;-4.222;2022-12-18T09:10:44;19.38;;;2.85;;
44430;SDS011;30135;47.866;-4.222;2022-12-18T09:13:11;30.92;;;3.65;;
44430;SDS011;30135;47.866;-4.222;2022-12-18T09:15:41;25.95;;;2.90;;
44430;SDS011;30135;47.866;-4.222;2022-12-18T09:18:14;26.90;;;5.07;;
44430;SDS011;30135;47.866;-4.222;2022-12-18T09:20:41;19.80;;;3.85;;
44430;SDS011;30135;47.866;-4.222;2022-12-18T09:23:08;24.83;;;2.83;;
44430;SDS011;30135;47.866;-4.222;2022-12-18T09:25:34;22.20;;;3.33;;
44430;SDS011;30135;47.866;-4.222;2022-12-18T09:28:03;32.75;;;3.25;;
44430;SDS011;30135;47.866;-4.222;2022-12-18T09:33:00;22.85;;;3.13;;
44430;SDS011;30135;47.866;-4.222;2022-12-18T09:35:26;17.98;;;3.05;;
44430;SDS011;30135;47.866;-4.222;2022-12-18T09:37:53;15.88;;;3.42;;
44430;SDS011;30135;47.866;-4.222;2022-12-18T09:40:22;28.40;;;4.07;;
44430;SDS011;30135;47.866;-4.222;2022-12-18T09:42:55;22.13;;;5.20;;
44430;SDS011;30135;47.866;-4.222;2022-12-18T09:45:27;22.13;;;3.30;;
44430;SDS011;30135;47.866;-4.222;2022-12-18T09:47:56;26.77;;;3.45;;
44430;SDS011;30135;47.866;-4.222;2022-12-18T09:50:29;32.80;;;5.03;;
44430;SDS011;30135;47.866;-4.222;2022-12-18T09:53:04;23.80;;;3.30;;
44430;SDS011;30135;47.866;-4.222;2022-12-18T09:55:42;17.83;;;3.65;;
44430;SDS011;30135;47.866;-4.222;2022-12-18T10:00:53;27.40;;;3.63;;
44430;SDS011;30135;47.866;-4.222;2022-12-18T10:03:20;20.75;;;3.40;;
44430;SDS011;30135;47.866;-4.222;2022-12-18T10:06:02;14.57;;;2.20;;
44430;SDS011;30135;47.866;-4.222;2022-12-18T10:08:59;20.50;;;2.92;;
44430;SDS011;30135;47.866;-4.222;2022-12-18T10:17:52;30.63;;;3.80;;
44430;SDS011;30135;47.866;-4.222;2022-12-18T10:20:33;39.95;;;3.45;;
44430;SDS011;30135;47.866;-4.222;2022-12-18T10:28:34;22.25;;;3.15;;
44430;SDS011;30135;47.866;-4.222;2022-12-18T10:31:05;33.00;;;3.50;;
44430;SDS011;30135;47.866;-4.222;2022-12-18T10:33:33;29.25;;;3.40;;
44430;SDS011;30135;47.866;-4.222;2022-12-18T10:35:59;22.33;;;3.15;;
44430;SDS011;30135;47.866;-4.222;2022-12-18T10:38:27;17.63;;;3.90;;
44430;SDS011;30135;47.866;-4.222;2022-12-18T10:41:03;32.53;;;3.95;;
44430;SDS011;30135;47.866;-4.222;2022-12-18T10:44:33;28.75;;;2.70;;
44430;SDS011;30135;47.866;-4.222;2022-12-18T10:47:02;21.60;;;3.30;;
44430;SDS011;30135;47.866;-4.222;2022-12-18T10:49:31;31.50;;;4.30;;
44430;SDS011;30135;47.866;-4.222;2022-12-18T10:52:05;27.58;;;3.05;;
44430;SDS011;30135;47.866;-4.222;2022-12-18T10:54:47;31.70;;;3.75;;
44430;SDS011;30135;47.866;-4.222;2022-12-18T10:57:38;34.63;;;3.97;;
44430;SDS011;30135;47.866;-4.222;2022-12-18T11:05:31;22.73;;;3.10;;
44430;SDS011;30135;47.866;-4.222;2022-12-18T11:07:59;40.80;;;4.10;;
44430;SDS011;30135;47.866;-4.222;2022-12-18T11:10:33;25.33;;;3.38;;
44430;SDS011;30135;47.866;-4.222;2022-12-18T11:13:11;36.75;;;4.35;;
44430;SDS011;30135;47.866;-4.222;2022-12-18T11:15:48;37.92;;;3.72;;
44430;SDS011;30135;47.866;-4.222;2022-12-18T11:18:20;46.13;;;4.47;;
44430;SDS011;30135;47.866;-4.222;2022-12-18T11:20:55;30.77;;;3.72;;
44430;SDS011;30135;47.866;-4.222;2022-12-18T11:23:32;41.85;;;4.15;;
44430;SDS011;30135;47.866;-4.222;2022-12-18T11:26:04;32.67;;;4.00;;
44430;SDS011;30135;47.866;-4.222;2022-12-18T11:28:47;42.40;;;5.85;;
44430;SDS011;30135;47.866;-4.222;2022-12-18T11:36:24;29.23;;;3.90;;
44430;SDS011;30135;47.866;-4.222;2022-12-18T11:38:56;34.25;;;4.32;;
44430;SDS011;30135;47.866;-4.222;2022-12-18T11:41:37;25.15;;;4.13;;
44430;SDS011;30135;47.866;-4.222;2022-12-18T11:44:35;31.25;;;5.32;;
44430;SDS011;30135;47.866;-4.222;2022-12-18T11:47:18;22.92;;;4.03;;
44430;SDS011;30135;47.866;-4.222;2022-12-18T11:49:59;21.15;;;3.15;;
44430;SDS011;30135;47.866;-4.222;2022-12-18T11:52:31;31.80;;;4.85;;
44430;SDS011;30135;47.866;-4.222;2022-12-18T11:55:10;24.05;;;5.40;;
44430;SDS011;30135;47.866;-4.222;2022-12-18T11:58:19;22.88;;;3.30;;
44430;SDS011;30135;47.866;-4.222;2022-12-18T12:01:16;17.65;;;3.35;;
44430;SDS011;30135;47.866;-4.222;2022-12-18T12:04:13;25.15;;;3.67;;
44430;SDS011;30135;47.866;-4.222;2022-12-18T12:07:05;17.77;;;4.03;;
44430;SDS011;30135;47.866;-4.222;2022-12-18T12:24:18;24.35;;;3.20;;
44430;SDS011;30135;47.866;-4.222;2022-12-18T12:27:27;20.40;;;3.03;;
44430;SDS011;30135;47.866;-4.222;2022-12-18T12:34:13;17.65;;;3.42;;
44430;SDS011;30135;47.866;-4.222;2022-12-18T12:39:18;34.35;;;3.72;;
44430;SDS011;30135;47.866;-4.222;2022-12-18T12:41:50;23.25;;;3.58;;
44430;SDS011;30135;47.866;-4.222;2022-12-18T12:44:42;34.40;;;3.88;;
44430;SDS011;30135;47.866;-4.222;2022-12-18T12:47:17;19.65;;;4.10;;
44430;SDS011;30135;47.866;-4.222;2022-12-18T12:49:58;46.05;;;4.18;;
44430;SDS011;30135;47.866;-4.222;2022-12-18T12:52:35;25.25;;;2.72;;
44430;SDS011;30135;47.866;-4.222;2022-12-18T12:55:13;32.70;;;3.80;;
44430;SDS011;30135;47.866;-4.222;2022-12-18T13:07:01;25.63;;;4.82;;
44430;SDS011;30135;47.866;-4.222;2022-12-18T13:15:48;30.80;;;4.00;;
44430;SDS011;30135;47.866;-4.222;2022-12-18T13:18:32;20.92;;;3.60;;
44430;SDS011;30135;47.866;-4.222;2022-12-18T13:25:58;25.65;;;3.25;;
44430;SDS011;30135;47.866;-4.222;2022-12-18T13:31:11;33.67;;;5.03;;
44430;SDS011;30135;47.866;-4.222;2022-12-18T13:34:18;22.10;;;2.88;;
44430;SDS011;30135;47.866;-4.222;2022-12-18T13:36:47;24.77;;;2.83;;
44430;SDS011;30135;47.866;-4.222;2022-12-18T13:41:43;23.25;;;4.65;;
44430;SDS011;30135;47.866;-4.222;2022-12-18T13:47:03;33.53;;;4.88;;
44430;SDS011;30135;47.866;-4.222;2022-12-18T13:52:15;22.13;;;3.67;;
44430;SDS011;30135;47.866;-4.222;2022-12-18T13:54:51;33.53;;;3.88;;
44430;SDS011;30135;47.866;-4.222;2022-12-18T13:57:29;25.88;;;3.92;;
44430;SDS011;30135;47.866;-4.222;2022-12-18T14:02:48;19.75;;;4.25;;
44430;SDS011;30135;47.866;-4.222;2022-12-18T14:07:55;23.02;;;3.30;;
44430;SDS011;30135;47.866;-4.222;2022-12-18T14:10:41;35.75;;;4.70;;
44430;SDS011;30135;47.866;-4.222;2022-12-18T14:13:09;30.58;;;5.25;;
44430;SDS011;30135;47.866;-4.222;2022-12-18T14:15:50;30.48;;;3.50;;
44430;SDS011;30135;47.866;-4.222;2022-12-18T14:18:21;25.08;;;3.72;;
44430;SDS011;30135;47.866;-4.222;2022-12-18T14:20:55;20.45;;;3.22;;
44430;SDS011;30135;47.866;-4.222;2022-12-18T14:26:24;26.20;;;3.75;;
44430;SDS011;30135;47.866;-4.222;2022-12-18T14:28:57;13.88;;;3.40;;
44430;SDS011;30135;47.866;-4.222;2022-12-18T14:31:44;21.23;;;2.85;;
44430;SDS011;30135;47.866;-4.222;2022-12-18T14:34:15;28.63;;;3.60;;
44430;SDS011;30135;47.866;-4.222;2022-12-18T14:36:41;27.02;;;3.88;;
44430;SDS011;30135;47.866;-4.222;2022-12-18T14:39:18;24.05;;;3.42;;
44430;SDS011;30135;47.866;-4.222;2022-12-18T14:41:44;16.13;;;2.78;;
44430;SDS011;30135;47.866;-4.222;2022-12-18T14:44:11;28.00;;;3.90;;
44430;SDS011;30135;47.866;-4.222;2022-12-18T14:46:38;20.73;;;4.30;;
44430;SDS011;30135;47.866;-4.222;2022-12-18T14:51:48;34.57;;;3.03;;
44430;SDS011;30135;47.866;-4.222;2022-12-18T14:54:18;13.80;;;2.28;;
44430;SDS011;30135;47.866;-4.222;2022-12-18T14:56:49;19.88;;;2.95;;
44430;SDS011;30135;47.866;-4.222;2022-12-18T14:59:46;25.45;;;3.17;;
44430;SDS011;30135;47.866;-4.222;2022-12-18T15:02:15;23.00;;;3.45;;
44430;SDS011;30135;47.866;-4.222;2022-12-18T15:04:47;29.70;;;2.85;;
44430;SDS011;30135;47.866;-4.222;2022-12-18T15:07:39;17.50;;;3.33;;
44430;SDS011;30135;47.866;-4.222;2022-12-18T15:20:43;33.28;;;4.57;;
44430;SDS011;30135;47.866;-4.222;2022-12-18T15:23:16;34.10;;;4.07;;
44430;SDS011;30135;47.866;-4.222;2022-12-18T15:25:47;25.75;;;2.90;;
44430;SDS011;30135;47.866;-4.222;2022-12-18T15:31:22;17.43;;;3.13;;
44430;SDS011;30135;47.866;-4.222;2022-12-18T15:36:22;14.50;;;2.47;;
44430;SDS011;30135;47.866;-4.222;2022-12-18T15:38:49;20.33;;;3.42;;
44430;SDS011;30135;47.866;-4.222;2022-12-18T15:41:18;29.83;;;3.17;;
44430;SDS011;30135;47.866;-4.222;2022-12-18T15:43:47;29.52;;;3.10;;
44430;SDS011;30135;47.866;-4.222;2022-12-18T15:46:16;23.83;;;3.90;;
44430;SDS011;30135;47.866;-4.222;2022-12-18T15:48:48;28.02;;;4.20;;
44430;SDS011;30135;47.866;-4.222;2022-12-18T15:51:21;20.33;;;3.78;;
44430;SDS011;30135;47.866;-4.222;2022-12-18T15:53:53;24.08;;;4.15;;
44430;SDS011;30135;47.866;-4.222;2022-12-18T15:56:21;18.92;;;3.10;;
44430;SDS011;30135;47.866;-4.222;2022-12-18T15:59:13;14.07;;;2.72;;
44430;SDS011;30135;47.866;-4.222;2022-12-18T16:01:43;20.05;;;3.88;;
44430;SDS011;30135;47.866;-4.222;2022-12-18T16:04:12;18.15;;;3.30;;
44430;SDS011;30135;47.866;-4.222;2022-12-18T16:06:40;26.38;;;2.97;;
44430;SDS011;30135;47.866;-4.222;2022-12-18T16:09:07;13.98;;;3.17;;
44430;SDS011;30135;47.866;-4.222;2022-12-18T16:11:34;33.17;;;4.47;;
44430;SDS011;30135;47.866;-4.222;2022-12-18T16:14:21;11.95;;;3.65;;
44430;SDS011;30135;47.866;-4.222;2022-12-18T16:16:53;25.95;;;2.97;;
44430;SDS011;30135;47.866;-4.222;2022-12-18T16:19:24;26.95;;;3.17;;
44430;SDS011;30135;47.866;-4.222;2022-12-18T16:21:52;25.23;;;3.47;;
44430;SDS011;30135;47.866;-4.222;2022-12-18T16:24:24;21.48;;;4.10;;
44430;SDS011;30135;47.866;-4.222;2022-12-18T16:26:53;18.20;;;4.13;;
44430;SDS011;30135;47.866;-4.222;2022-12-18T16:29:21;34.20;;;5.90;;
44430;SDS011;30135;47.866;-4.222;2022-12-18T16:31:51;30.85;;;4.03;;
44430;SDS011;30135;47.866;-4.222;2022-12-18T16:34:23;20.55;;;3.20;;
44430;SDS011;30135;47.866;-4.222;2022-12-18T16:36:54;29.70;;;3.60;;
44430;SDS011;30135;47.866;-4.222;2022-12-18T16:39:23;23.63;;;3.25;;
44430;SDS011;30135;47.866;-4.222;2022-12-18T16:41:50;29.45;;;3.75;;
44430;SDS011;30135;47.866;-4.222;2022-12-18T16:44:16;31.30;;;6.00;;
44430;SDS011;30135;47.866;-4.222;2022-12-18T16:46:42;41.80;;;3.85;;
44430;SDS011;30135;47.866;-4.222;2022-12-18T16:49:11;26.77;;;5.20;;
44430;SDS011;30135;47.866;-4.222;2022-12-18T16:51:42;32.63;;;3.47;;
44430;SDS011;30135;47.866;-4.222;2022-12-18T16:54:12;26.67;;;4.88;;
44430;SDS011;30135;47.866;-4.222;2022-12-18T16:56:40;26.85;;;4.88;;
44430;SDS011;30135;47.866;-4.222;2022-12-18T16:59:09;25.25;;;3.40;;
44430;SDS011;30135;47.866;-4.222;2022-12-18T17:01:38;32.75;;;4.32;;
44430;SDS011;30135;47.866;-4.222;2022-12-18T17:04:08;21.42;;;3.20;;
44430;SDS011;30135;47.866;-4.222;2022-12-18T17:06:41;24.52;;;3.58;;
44430;SDS011;30135;47.866;-4.222;2022-12-18T17:09:14;24.65;;;3.08;;
44430;SDS011;30135;47.866;-4.222;2022-12-18T17:11:45;33.42;;;4.38;;
44430;SDS011;30135;47.866;-4.222;2022-12-18T17:14:17;29.05;;;3.30;;
44430;SDS011;30135;47.866;-4.222;2022-12-18T17:16:50;17.38;;;3.15;;
44430;SDS011;30135;47.866;-4.222;2022-12-18T17:19:19;25.45;;;4.05;;
44430;SDS011;30135;47.866;-4.222;2022-12-18T17:21:48;20.98;;;3.60;;